createdAt,value
2018-11-01T00:01:35.666Z,100811.00
2018-11-01T00:04:23.048Z,100801.00
2018-11-01T00:10:24.570Z,100797.00
2018-11-01T00:16:22.466Z,100798.00
2018-11-01T00:19:04.868Z,100797.00
2018-11-01T00:24:43.212Z,100801.00
2018-11-01T00:30:18.926Z,100791.00
2018-11-01T00:32:59.287Z,100801.00
2018-11-01T00:35:37.139Z,100795.00
2018-11-01T00:38:12.055Z,100797.00
2018-11-01T00:45:09.896Z,100800.00
2018-11-01T00:50:45.248Z,100804.00
2018-11-01T00:53:14.855Z,100805.00
2018-11-01T00:56:02.681Z,100805.00
2018-11-01T00:58:32.183Z,100805.00
2018-11-01T01:01:02.333Z,100801.00
2018-11-01T01:03:31.975Z,100802.00
2018-11-01T01:12:02.897Z,100807.00
2018-11-01T01:14:33.420Z,100804.00
2018-11-01T01:17:02.807Z,100798.00
2018-11-01T01:19:34.011Z,100806.00
2018-11-01T01:22:06.547Z,100788.00
2018-11-01T01:24:48.137Z,100792.00
2018-11-01T01:27:18.231Z,100790.00
2018-11-01T01:29:47.885Z,100776.00
2018-11-01T01:32:17.227Z,100779.00
2018-11-01T01:35:05.382Z,100768.00
2018-11-01T01:37:38.855Z,100773.00
2018-11-01T01:40:36.504Z,100768.00
2018-11-01T01:43:24.159Z,100773.00
2018-11-01T01:51:05.997Z,100771.00
2018-11-01T01:53:35.553Z,100775.00
2018-11-01T02:05:17.027Z,100779.00
2018-11-01T02:08:15.355Z,100779.00
2018-11-01T02:11:14.310Z,100775.00
2018-11-01T02:23:49.543Z,100754.00
2018-11-01T02:26:43.765Z,100750.00
2018-11-01T02:29:16.982Z,100748.00
2018-11-01T02:34:47.437Z,100739.00
2018-11-01T02:39:13.939Z,100737.00
2018-11-01T02:41:56.267Z,100725.00
2018-11-01T02:49:41.288Z,100717.00
2018-11-01T02:53:22.661Z,100688.00
2018-11-01T02:55:52.242Z,100683.00
2018-11-01T03:01:16.422Z,100691.00
2018-11-01T03:04:25.328Z,100688.00
2018-11-01T03:07:19.779Z,100689.00
2018-11-01T03:09:52.333Z,100699.00
2018-11-01T03:12:22.101Z,100704.00
2018-11-01T03:14:51.809Z,100705.00
2018-11-01T03:17:21.344Z,100697.00
2018-11-01T03:20:21.309Z,100697.00
2018-11-01T03:23:21.590Z,100689.00
2018-11-01T03:28:54.611Z,100707.00
2018-11-01T03:34:55.210Z,100709.00
2018-11-01T03:37:26.245Z,100698.00
2018-11-01T03:40:00.431Z,100708.00
2018-11-01T03:42:57.768Z,100703.00
2018-11-01T03:52:01.935Z,100693.00
2018-11-01T03:54:31.060Z,100695.00
2018-11-01T03:57:00.253Z,100685.00
2018-11-01T03:59:30.190Z,100684.00
2018-11-01T04:02:05.513Z,100688.00
2018-11-01T04:08:01.740Z,100677.00
2018-11-01T04:10:58.687Z,100677.00
2018-11-01T04:13:54.315Z,100674.00
2018-11-01T04:16:25.523Z,100675.00
2018-11-01T04:19:02.654Z,100675.00
2018-11-01T04:21:31.974Z,100670.00
2018-11-01T04:24:01.570Z,100671.00
2018-11-01T04:26:54.021Z,100668.00
2018-11-01T04:43:17.069Z,100655.00
2018-11-01T04:46:05.589Z,100656.00
2018-11-01T04:48:35.564Z,100654.00
2018-11-01T04:54:02.070Z,100647.00
2018-11-01T04:56:31.314Z,100645.00
2018-11-01T04:59:09.642Z,100639.00
2018-11-01T05:01:38.713Z,100639.00
2018-11-01T05:28:21.053Z,100650.00
2018-11-01T05:30:50.186Z,100641.00
2018-11-01T05:36:23.623Z,100638.00
2018-11-01T05:38:53.609Z,100638.00
2018-11-01T05:44:22.802Z,100637.00
2018-11-01T05:46:51.890Z,100629.00
2018-11-01T05:54:01.787Z,100621.00
2018-11-01T05:56:48.303Z,100626.00
2018-11-01T06:00:51.063Z,100616.00
2018-11-01T06:03:20.229Z,100614.00
2018-11-01T06:05:49.492Z,100612.00
2018-11-01T06:08:25.003Z,100615.00
2018-11-01T06:10:54.433Z,100601.00
2018-11-01T06:13:23.645Z,100599.00
2018-11-01T06:15:52.794Z,100601.00
2018-11-01T06:18:23.437Z,100601.00
2018-11-01T06:20:55.441Z,100596.00
2018-11-01T06:23:24.601Z,100586.00
2018-11-01T06:25:53.775Z,100578.00
2018-11-01T07:05:46.460Z,100549.00
2018-11-01T07:08:15.433Z,100546.00
2018-11-01T07:10:44.699Z,100554.00
2018-11-01T07:13:40.593Z,100560.00
2018-11-01T07:19:14.745Z,100563.00
2018-11-01T07:21:52.331Z,100562.00
2018-11-01T07:24:33.719Z,100571.00
2018-11-01T07:27:03.070Z,100577.00
2018-11-01T07:29:32.289Z,100566.00
2018-11-01T07:32:02.598Z,100566.00
2018-11-01T08:40:46.429Z,100508.00
2018-11-01T08:43:15.892Z,100502.00
2018-11-01T08:50:08.528Z,100497.00
2018-11-01T08:52:38.706Z,100495.00
2018-11-01T08:55:08.571Z,100494.00
2018-11-01T08:57:47.873Z,100492.00
2018-11-01T09:13:50.474Z,100493.00
2018-11-01T09:27:44.484Z,100368.00
2018-11-01T09:30:17.398Z,100482.00
2018-11-01T09:32:55.590Z,100485.00
2018-11-01T09:35:50.793Z,100495.00
2018-11-01T09:38:23.612Z,100490.00
2018-11-01T09:53:25.560Z,100501.00
2018-11-01T09:55:58.333Z,100488.00
2018-11-01T10:33:12.947Z,100412.00
2018-11-01T10:35:43.075Z,100394.00
2018-11-01T10:41:12.211Z,100390.00
2018-11-01T10:43:41.473Z,100386.00
2018-11-01T10:46:17.145Z,100380.00
2018-11-01T10:53:25.513Z,100376.00
2018-11-01T10:55:54.846Z,100377.00
2018-11-01T10:58:24.458Z,100366.00
2018-11-01T11:00:59.371Z,100362.00
2018-11-01T11:03:37.699Z,100365.00
2018-11-01T11:06:07.259Z,100352.00
2018-11-01T11:08:36.672Z,100360.00
2018-11-01T11:11:05.830Z,100359.00
2018-11-01T11:13:35.687Z,100359.00
2018-11-01T11:16:04.922Z,100362.00
2018-11-01T11:18:34.073Z,100360.00
2018-11-01T11:21:03.492Z,100363.00
2018-11-01T11:23:34.999Z,100348.00
2018-11-01T11:26:04.405Z,100356.00
2018-11-01T11:28:33.608Z,100354.00
2018-11-01T11:31:02.687Z,100356.00
2018-11-01T11:33:37.615Z,100351.00
2018-11-01T11:36:07.267Z,100347.00
2018-11-01T11:38:36.549Z,100356.00
2018-11-01T11:41:26.005Z,100361.00
2018-11-01T11:43:55.156Z,100351.00
2018-11-01T11:46:24.316Z,100347.00
2018-11-01T11:48:53.735Z,100335.00
2018-11-01T11:51:32.432Z,100321.00
2018-11-01T11:54:01.572Z,100316.00
2018-11-01T11:56:31.018Z,100336.00
2018-11-01T11:59:00.131Z,100322.00
2018-11-01T12:01:29.521Z,100326.00
2018-11-01T12:03:58.844Z,100321.00
2018-11-01T12:06:28.914Z,100319.00
2018-11-01T12:09:03.089Z,100309.00
2018-11-01T12:11:32.295Z,100322.00
2018-11-01T12:14:03.767Z,100313.00
2018-11-01T12:16:42.065Z,100312.00
2018-11-01T12:19:12.044Z,100304.00
2018-11-01T12:21:43.635Z,100307.00
2018-11-01T12:24:23.254Z,100300.00
2018-11-01T12:26:52.398Z,100302.00
2018-11-01T12:29:21.560Z,100302.00
2018-11-01T12:32:01.920Z,100291.00
2018-11-01T12:34:31.219Z,100285.00
2018-11-01T12:37:01.335Z,100286.00
2018-11-01T12:39:30.690Z,100277.00
2018-11-01T12:44:59.764Z,100273.00
2018-11-01T12:47:29.113Z,100277.00
2018-11-01T12:50:00.381Z,100274.00
2018-11-01T12:52:34.597Z,100265.00
2018-11-01T12:55:03.865Z,100262.00
2018-11-01T12:57:33.324Z,100262.00
2018-11-01T13:00:02.718Z,100257.00
2018-11-01T13:02:33.125Z,100253.00
2018-11-01T13:05:29.597Z,100243.00
2018-11-01T13:08:24.882Z,100234.00
2018-11-01T13:10:54.118Z,100223.00
2018-11-01T13:13:23.339Z,100221.00
2018-11-01T13:15:58.933Z,100219.00
2018-11-01T13:18:28.249Z,100213.00
2018-11-01T13:20:57.410Z,100218.00
2018-11-01T13:23:26.611Z,100228.00
2018-11-01T13:25:55.701Z,100231.00
2018-11-01T13:28:24.895Z,100227.00
2018-11-01T13:30:54.346Z,100231.00
2018-11-01T13:33:23.547Z,100227.00
2018-11-01T13:35:53.000Z,100220.00
2018-11-01T13:38:22.254Z,100219.00
2018-11-01T13:40:52.604Z,100213.00
2018-11-01T13:43:21.331Z,100204.00
2018-11-01T13:45:50.614Z,100203.00
2018-11-01T13:48:20.711Z,100197.00
2018-11-01T13:50:51.915Z,100195.00
2018-11-01T13:53:22.136Z,100194.00
2018-11-01T13:55:51.525Z,100187.00
2018-11-01T13:58:30.378Z,100187.00
2018-11-01T14:01:00.660Z,100187.00
2018-11-01T14:03:29.856Z,100191.00
2018-11-01T14:05:59.651Z,100193.00
2018-11-01T14:08:37.178Z,100187.00
2018-11-01T14:11:31.390Z,100183.00
2018-11-01T14:14:08.292Z,100194.00
2018-11-01T14:16:38.266Z,100176.00
2018-11-01T14:19:07.666Z,100179.00
2018-11-01T14:21:37.104Z,100181.00
2018-11-01T14:24:08.628Z,100187.00
2018-11-01T14:26:38.858Z,100192.00
2018-11-01T14:29:11.184Z,100196.00
2018-11-01T14:31:40.966Z,100200.00
2018-11-01T14:50:01.772Z,100187.00
2018-11-01T14:52:30.979Z,100185.00
2018-11-01T14:55:01.622Z,100190.00
2018-11-01T15:07:28.472Z,100202.00
2018-11-01T15:09:57.823Z,100202.00
2018-11-01T15:12:29.387Z,100196.00
2018-11-01T15:15:02.180Z,100170.00
2018-11-01T15:20:32.370Z,100179.00
2018-11-01T15:36:26.153Z,100165.00
2018-11-01T15:38:55.590Z,100142.00
2018-11-01T15:41:32.262Z,100142.00
2018-11-01T15:44:02.892Z,100144.00
2018-11-01T15:46:51.535Z,100140.00
2018-11-01T15:49:21.891Z,100143.00
2018-11-01T15:52:03.200Z,100130.00
2018-11-01T15:55:10.142Z,100124.00
2018-11-01T15:58:01.123Z,100127.00
2018-11-01T16:00:30.740Z,100110.00
2018-11-01T16:03:02.119Z,100125.00
2018-11-01T16:05:34.876Z,100127.00
2018-11-01T16:08:17.304Z,100125.00
2018-11-01T16:10:56.827Z,100113.00
2018-11-01T17:00:30.655Z,100098.00
2018-11-01T17:03:00.274Z,100084.00
2018-11-01T17:05:30.420Z,100090.00
2018-11-01T17:08:04.056Z,100100.00
2018-11-01T17:10:40.393Z,100100.00
2018-11-01T17:13:11.156Z,100109.00
2018-11-01T17:15:41.141Z,100098.00
2018-11-01T17:18:11.277Z,100115.00
2018-11-01T17:20:41.468Z,100114.00
2018-11-01T17:23:12.132Z,100114.00
2018-11-01T17:25:47.924Z,100117.00
2018-11-01T17:45:36.803Z,100137.00
2018-11-01T17:48:06.066Z,100130.00
2018-11-01T17:50:36.146Z,100130.00
2018-11-01T17:53:05.372Z,100145.00
2018-11-01T17:55:34.504Z,100149.00
2018-11-01T17:58:03.820Z,100146.00
2018-11-01T18:00:34.295Z,100143.00
2018-11-01T18:03:03.984Z,100155.00
2018-11-01T18:05:33.360Z,100162.00
2018-11-01T18:08:03.042Z,100167.00
2018-11-01T18:10:33.010Z,100168.00
2018-11-01T18:13:02.482Z,100170.00
2018-11-01T18:15:31.932Z,100153.00
2018-11-01T18:18:01.520Z,100155.00
2018-11-01T18:20:30.894Z,100153.00
2018-11-01T18:23:00.230Z,100155.00
2018-11-01T18:25:30.555Z,100154.00
2018-11-01T18:28:00.228Z,100152.00
2018-11-01T18:30:29.580Z,100148.00
2018-11-01T18:32:58.881Z,100145.00
2018-11-01T18:35:27.959Z,100143.00
2018-11-01T18:37:57.338Z,100148.00
2018-11-01T18:40:27.417Z,100148.00
2018-11-01T18:42:56.796Z,100151.00
2018-11-01T18:45:26.101Z,100150.00
2018-11-01T18:47:55.405Z,100151.00
2018-11-01T18:50:26.167Z,100157.00
2018-11-01T18:52:55.419Z,100155.00
2018-11-01T18:55:28.812Z,100161.00
2018-11-01T18:57:58.336Z,100157.00
2018-11-01T19:00:27.691Z,100170.00
2018-11-01T19:02:58.312Z,100174.00
2018-11-01T19:05:27.946Z,100178.00
2018-11-01T19:07:57.428Z,100166.00
2018-11-01T19:10:27.043Z,100168.00
2018-11-01T19:12:58.113Z,100165.00
2018-11-01T19:15:29.959Z,100107.00
2018-11-01T19:17:59.914Z,100161.00
2018-11-01T19:20:30.064Z,100162.00
2018-11-01T19:22:59.658Z,100163.00
2018-11-01T19:25:29.937Z,100176.00
2018-11-01T19:28:00.031Z,100168.00
2018-11-01T19:30:30.116Z,100163.00
2018-11-01T19:33:00.563Z,100158.00
2018-11-01T19:35:30.735Z,100167.00
2018-11-01T19:38:00.198Z,100161.00
2018-11-01T19:40:30.127Z,100159.00
2018-11-01T19:43:00.180Z,100158.00
2018-11-01T19:45:39.519Z,100150.00
2018-11-01T19:48:12.577Z,100154.00
2018-11-01T19:50:42.123Z,100152.00
2018-11-01T19:53:11.443Z,100151.00
2018-11-01T19:55:40.564Z,100143.00
2018-11-01T19:58:11.029Z,100145.00
2018-11-01T20:00:40.585Z,100145.00
2018-11-01T20:03:14.569Z,100157.00
2018-11-01T20:05:43.946Z,100160.00
2018-11-01T20:08:13.790Z,100158.00
2018-11-01T20:10:43.242Z,100168.00
2018-11-01T20:13:12.738Z,100155.00
2018-11-01T20:15:42.299Z,100162.00
2018-11-01T20:18:14.480Z,100158.00
2018-11-01T20:20:43.781Z,100160.00
2018-11-01T20:23:13.228Z,100159.00
2018-11-01T20:25:44.321Z,100164.00
2018-11-01T20:28:15.316Z,100179.00
2018-11-01T20:30:46.457Z,100173.00
2018-11-01T20:33:20.584Z,100173.00
2018-11-01T20:35:53.305Z,100174.00
2018-11-01T20:38:22.609Z,100179.00
2018-11-01T20:40:55.094Z,100180.00
2018-11-01T20:43:29.796Z,100175.00
2018-11-01T20:45:59.515Z,100188.00
2018-11-01T20:48:36.234Z,100197.00
2018-11-01T20:51:07.571Z,100201.00
2018-11-01T20:53:37.703Z,100197.00
2018-11-01T20:56:06.994Z,100193.00
2018-11-01T20:58:36.972Z,100197.00
2018-11-01T21:01:07.754Z,100197.00
2018-11-01T21:03:37.270Z,100195.00
2018-11-01T21:06:22.156Z,100214.00
2018-11-01T21:09:24.634Z,100212.00
2018-11-01T21:11:54.654Z,100223.00
2018-11-01T21:14:23.853Z,100222.00
2018-11-01T21:16:54.723Z,100230.00
2018-11-01T21:19:23.956Z,100221.00
2018-11-01T21:21:54.060Z,100211.00
2018-11-01T21:24:23.532Z,100216.00
2018-11-01T21:26:52.766Z,100216.00
2018-11-01T21:29:22.454Z,100224.00
2018-11-01T21:31:51.642Z,100216.00
2018-11-01T21:34:22.862Z,100225.00
2018-11-01T21:36:52.428Z,100227.00
2018-11-01T21:39:26.570Z,100229.00
2018-11-01T21:41:55.833Z,100235.00
2018-11-01T21:44:25.048Z,100240.00
2018-11-01T21:46:54.755Z,100235.00
2018-11-01T21:49:24.119Z,100233.00
2018-11-01T21:51:53.300Z,100236.00
2018-11-01T21:54:23.017Z,100237.00
2018-11-01T21:56:52.808Z,100228.00
2018-11-01T21:59:22.084Z,100233.00
2018-11-01T22:01:52.712Z,100227.00
2018-11-01T22:04:23.120Z,100227.00
2018-11-01T22:06:52.786Z,100235.00
2018-11-01T22:09:22.100Z,100243.00
2018-11-01T22:11:51.453Z,100253.00
2018-11-01T22:14:20.778Z,100244.00
2018-11-01T22:16:50.172Z,100243.00
2018-11-01T22:19:19.447Z,100246.00
2018-11-01T22:21:48.673Z,100251.00
2018-11-01T22:24:28.312Z,100257.00
2018-11-01T22:27:01.164Z,100264.00
2018-11-01T22:29:36.933Z,100271.00
2018-11-01T22:32:12.157Z,100272.00
2018-11-01T22:34:47.360Z,100275.00
2018-11-01T22:37:17.464Z,100270.00
2018-11-01T22:39:50.271Z,100278.00
2018-11-01T22:42:19.679Z,100274.00
2018-11-01T22:44:48.873Z,100281.00
2018-11-01T22:47:18.066Z,100280.00
2018-11-01T22:49:49.393Z,100267.00
2018-11-01T22:52:18.950Z,100279.00
2018-11-01T22:54:49.252Z,100276.00
2018-11-01T22:57:18.381Z,100276.00
2018-11-01T22:59:47.895Z,100278.00
2018-11-01T23:02:17.189Z,100276.00
2018-11-01T23:04:46.571Z,100274.00
2018-11-01T23:07:16.778Z,100267.00
2018-11-01T23:09:46.804Z,100261.00
2018-11-01T23:12:16.382Z,100258.00
2018-11-01T23:14:45.973Z,100260.00
2018-11-01T23:17:15.308Z,100276.00
2018-11-01T23:19:45.342Z,100281.00
2018-11-01T23:22:15.054Z,100286.00
2018-11-01T23:24:44.721Z,100281.00
2018-11-01T23:27:14.373Z,100286.00
2018-11-01T23:29:44.266Z,100288.00
2018-11-01T23:32:14.245Z,100289.00
2018-11-01T23:34:43.456Z,100292.00
2018-11-01T23:37:17.941Z,100295.00
2018-11-01T23:39:53.453Z,100294.00
2018-11-01T23:42:28.181Z,100297.00
2018-11-01T23:45:03.394Z,100300.00
2018-11-01T23:47:38.091Z,100309.00
2018-11-01T23:50:11.225Z,100307.00
2018-11-01T23:52:43.741Z,100308.00
2018-11-01T23:55:13.517Z,100302.00
2018-11-01T23:57:43.748Z,100132.00
